Time;durP1;ratioP1;P1;durP2;ratioP2;P2;SDS_P1;SDS_P2;PMS_P1;PMS_P2;Temp;Humidity;BMP_temperature;BMP_pressure;BME280_temperature;BME280_humidity;BME280_pressure;Samples;Min_cycle;Max_cycle;Signal;HPM_P1;HPM_P2
2021/12/29 04:03:07;;;;;;;25.38;14.85;;;8.70;96.00;;;;;;5133427;27;20108;-50
2021/12/29 04:05:34;;;;;;;25.20;14.35;;;8.70;95.90;;;;;;5114089;28;20036;-50
2021/12/29 04:08:01;;;;;;;25.42;15.05;;;8.80;95.80;;;;;;5132173;28;20064;-51
2021/12/29 04:10:27;;;;;;;26.17;11.10;;;8.80;95.70;;;;;;5132564;28;20332;-49
2021/12/29 04:12:53;;;;;;;25.00;14.48;;;8.80;95.60;;;;;;5132149;27;20045;-48
2021/12/29 04:15:19;;;;;;;23.73;14.27;;;8.80;95.70;;;;;;5114034;28;20482;-48
2021/12/29 04:17:46;;;;;;;19.55;11.93;;;8.80;95.60;;;;;;5122866;28;20049;-50
2021/12/29 04:23:06;;;;;;;17.83;10.10;;;8.80;95.60;;;;;;5132840;28;20038;-47
2021/12/29 04:25:36;;;;;;;20.38;11.65;;;8.80;95.60;;;;;;5130647;28;20031;-49
2021/12/29 04:28:13;;;;;;;15.30;9.00;;;8.80;95.60;;;;;;5130701;28;20027;-51
2021/12/29 04:30:40;;;;;;;19.95;11.70;;;8.80;95.70;;;;;;5115536;28;20015;-49
2021/12/29 04:33:06;;;;;;;18.33;10.32;;;8.80;95.60;;;;;;5131055;28;20016;-48
2021/12/29 04:35:32;;;;;;;15.63;10.90;;;8.80;95.60;;;;;;5130326;28;20049;-49
2021/12/29 04:38:01;;;;;;;15.93;10.93;;;8.80;95.50;;;;;;5130198;28;20015;-51
2021/12/29 04:40:29;;;;;;;20.15;11.93;;;8.80;95.60;;;;;;5131248;27;20023;-49
2021/12/29 04:42:55;;;;;;;15.95;11.23;;;8.80;95.30;;;;;;5131396;27;20027;-49
2021/12/29 04:45:20;;;;;;;16.52;10.15;;;8.80;95.10;;;;;;5130139;28;20368;-51
2021/12/29 04:47:48;;;;;;;14.25;10.20;;;8.80;95.30;;;;;;5113625;28;20035;-48
2021/12/29 04:50:36;;;;;;;13.02;8.32;;;8.80;95.40;;;;;;5130434;28;20020;-49
2021/12/29 04:53:04;;;;;;;18.13;10.40;;;8.80;95.30;;;;;;5116289;28;20035;-48
2021/12/29 04:55:30;;;;;;;17.33;10.75;;;8.80;95.40;;;;;;5129947;28;20028;-48
2021/12/29 04:58:03;;;;;;;16.13;8.88;;;8.80;95.40;;;;;;5131316;27;20020;-48
2021/12/29 05:00:30;;;;;;;19.92;9.90;;;8.70;95.50;;;;;;5130829;28;20023;-48
2021/12/29 05:02:58;;;;;;;19.23;10.38;;;8.70;95.80;;;;;;5130808;27;20047;-47
2021/12/29 05:10:46;;;;;;;22.27;13.13;;;8.60;95.90;;;;;;5131189;28;20073;-49
2021/12/29 05:13:13;;;;;;;23.63;12.27;;;8.60;95.80;;;;;;5124740;27;20443;-49
2021/12/29 05:15:39;;;;;;;21.40;13.38;;;8.60;95.70;;;;;;5115986;28;20123;-49
2021/12/29 05:18:05;;;;;;;24.75;13.57;;;8.60;95.60;;;;;;5117194;28;20421;-52
2021/12/29 05:20:31;;;;;;;17.73;11.07;;;8.50;95.40;;;;;;5116521;28;20019;-49
2021/12/29 05:22:58;;;;;;;21.20;10.27;;;8.50;95.40;;;;;;5115741;28;20032;-49
2021/12/29 05:25:27;;;;;;;19.83;11.55;;;8.50;95.30;;;;;;5117278;28;20051;-48
2021/12/29 05:27:53;;;;;;;21.33;10.93;;;8.50;94.90;;;;;;5117178;28;20078;-50
2021/12/29 05:30:19;;;;;;;15.20;9.23;;;8.60;94.90;;;;;;5098938;28;20020;-48
2021/12/29 05:32:45;;;;;;;19.17;7.60;;;8.60;94.50;;;;;;5115647;28;20028;-50
2021/12/29 05:35:12;;;;;;;14.25;8.82;;;8.50;94.60;;;;;;5116982;28;20110;-51
2021/12/29 05:37:39;;;;;;;17.27;8.77;;;8.60;94.60;;;;;;5115484;28;20061;-50
2021/12/29 05:40:07;;;;;;;11.25;7.25;;;8.50;94.60;;;;;;5115456;28;20061;-51
2021/12/29 05:42:34;;;;;;;12.43;8.30;;;8.50;94.40;;;;;;5116797;27;20028;-52
2021/12/29 05:45:12;;;;;;;13.65;8.70;;;8.60;94.30;;;;;;5116613;28;20027;-52
2021/12/29 05:47:39;;;;;;;12.23;6.10;;;8.60;94.20;;;;;;5115845;28;20123;-50
2021/12/29 05:50:08;;;;;;;11.90;6.43;;;8.60;94.20;;;;;;5116786;28;20153;-52
2021/12/29 05:52:34;;;;;;;12.80;5.55;;;8.60;94.10;;;;;;5117280;28;20027;-49
2021/12/29 05:55:03;;;;;;;12.85;5.28;;;8.60;94.00;;;;;;5116451;28;20036;-50
2021/12/29 05:57:30;;;;;;;8.35;5.25;;;8.70;93.30;;;;;;5116961;28;20019;-49
2021/12/29 05:59:56;;;;;;;7.22;4.18;;;8.70;93.10;;;;;;5115233;28;20084;-50
2021/12/29 06:02:22;;;;;;;11.05;4.57;;;8.70;93.00;;;;;;5116047;28;20047;-53
2021/12/29 06:04:48;;;;;;;7.82;5.30;;;8.70;93.00;;;;;;5116167;28;20016;-48
2021/12/29 06:07:13;;;;;;;11.70;5.68;;;8.60;93.20;;;;;;5116054;28;20018;-50
2021/12/29 06:09:40;;;;;;;11.70;5.95;;;8.60;93.20;;;;;;5117104;28;20024;-51
2021/12/29 06:12:06;;;;;;;10.00;6.85;;;8.70;93.10;;;;;;5114848;28;20390;-48
2021/12/29 06:14:32;;;;;;;11.77;5.72;;;8.70;93.20;;;;;;5116058;28;20077;-49
2021/12/29 06:16:58;;;;;;;15.45;7.93;;;8.60;93.30;;;;;;5114508;28;20036;-47
2021/12/29 06:19:24;;;;;;;15.02;7.43;;;8.60;93.40;;;;;;5116177;28;20201;-50
2021/12/29 06:21:52;;;;;;;14.25;7.65;;;8.60;93.60;;;;;;5116052;28;20035;-49
2021/12/29 06:24:18;;;;;;;21.17;7.30;;;8.60;93.60;;;;;;5115540;28;20047;-50
2021/12/29 06:26:44;;;;;;;13.32;7.72;;;8.50;93.90;;;;;;5114406;28;20055;-49
2021/12/29 06:29:11;;;;;;;18.05;7.75;;;8.60;93.90;;;;;;5114667;28;20027;-52
2021/12/29 06:31:37;;;;;;;16.60;8.68;;;8.50;94.00;;;;;;5116743;28;20031;-49
2021/12/29 06:34:03;;;;;;;17.17;8.80;;;8.60;94.10;;;;;;5114623;28;20600;-48
2021/12/29 06:36:29;;;;;;;18.27;9.70;;;8.60;94.00;;;;;;5115789;28;20102;-48
2021/12/29 06:38:58;;;;;;;21.00;10.18;;;8.50;94.00;;;;;;5115402;28;20030;-49
2021/12/29 06:41:23;;;;;;;15.02;10.27;;;8.60;94.00;;;;;;5113908;28;20096;-49
2021/12/29 06:43:49;;;;;;;17.75;10.95;;;8.50;94.20;;;;;;5115275;28;20020;-48
2021/12/29 06:46:18;;;;;;;16.65;10.15;;;8.60;94.30;;;;;;5097048;28;20540;-48
2021/12/29 06:48:44;;;;;;;21.38;11.60;;;8.60;94.20;;;;;;5096874;28;20536;-47
2021/12/29 06:51:10;;;;;;;17.90;11.40;;;8.60;94.20;;;;;;5115629;28;20020;-51
2021/12/29 06:53:41;;;;;;;20.55;11.30;;;8.70;94.20;;;;;;5113152;28;20070;-48
2021/12/29 06:56:06;;;;;;;16.02;9.77;;;8.60;94.10;;;;;;5113641;28;20027;-48
2021/12/29 06:58:34;;;;;;;18.45;10.18;;;8.60;94.20;;;;;;5114772;28;20103;-49
2021/12/29 07:01:00;;;;;;;19.80;11.25;;;8.60;94.40;;;;;;5113568;28;20028;-52
2021/12/29 07:03:26;;;;;;;20.20;11.63;;;8.60;94.50;;;;;;5116309;28;20110;-48
2021/12/29 07:05:54;;;;;;;22.92;12.88;;;8.60;94.50;;;;;;5114797;28;20511;-49
2021/12/29 07:08:23;;;;;;;19.38;12.40;;;8.70;94.60;;;;;;5116112;28;20027;-48
2021/12/29 07:10:49;;;;;;;22.98;12.80;;;8.70;94.50;;;;;;5115792;28;20408;-47
2021/12/29 07:13:15;;;;;;;18.92;11.63;;;8.70;94.50;;;;;;5116984;28;20028;-38
2021/12/29 07:15:41;;;;;;;18.45;12.15;;;8.60;94.50;;;;;;5115943;28;20108;-39
2021/12/29 07:18:06;;;;;;;17.63;11.77;;;8.70;94.60;;;;;;5115057;28;20023;-38
2021/12/29 07:20:32;;;;;;;22.75;14.98;;;8.70;94.70;;;;;;5115754;28;20028;-52
2021/12/29 07:22:58;;;;;;;18.33;12.70;;;8.70;94.60;;;;;;5115679;28;20416;-48
2021/12/29 07:25:24;;;;;;;25.10;14.70;;;8.70;94.70;;;;;;5116007;28;20030;-49
2021/12/29 07:27:51;;;;;;;26.75;15.35;;;8.70;94.70;;;;;;5115763;28;20055;-52
2021/12/29 07:30:17;;;;;;;31.20;17.63;;;8.80;94.70;;;;;;5115068;28;20529;-51
2021/12/29 07:32:43;;;;;;;30.23;17.30;;;8.80;94.60;;;;;;5115214;27;20059;-49
2021/12/29 07:35:09;;;;;;;27.27;16.25;;;8.80;94.50;;;;;;5114651;28;20114;-47
2021/12/29 07:37:34;;;;;;;31.80;16.55;;;8.80;94.70;;;;;;5115608;28;20185;-48
2021/12/29 07:40:06;;;;;;;31.38;17.23;;;8.80;94.60;;;;;;5114444;28;20028;-47
2021/12/29 07:42:32;;;;;;;35.35;17.63;;;8.80;94.90;;;;;;5113293;28;20023;-51
2021/12/29 07:44:58;;;;;;;26.65;15.63;;;8.80;95.00;;;;;;5114601;28;20079;-49
2021/12/29 07:47:24;;;;;;;24.70;14.68;;;8.80;95.00;;;;;;5113984;28;20186;-52
2021/12/29 07:49:49;;;;;;;26.58;15.13;;;8.70;95.00;;;;;;5115336;28;20423;-48
2021/12/29 07:52:15;;;;;;;23.88;15.23;;;8.80;95.10;;;;;;5114717;28;20384;-50
2021/12/29 07:54:40;;;;;;;24.20;14.25;;;8.70;95.10;;;;;;5114206;28;20111;-48
2021/12/29 07:57:06;;;;;;;25.25;14.65;;;8.80;95.00;;;;;;5114152;28;20032;-47
2021/12/29 07:59:32;;;;;;;25.08;16.73;;;8.80;94.90;;;;;;5115739;28;20483;-51
2021/12/29 14:03:06;;;;;;;14.52;8.68;;;9.30;90.20;;;;;;5132852;27;20130;-38
2021/12/29 14:05:45;;;;;;;22.05;11.75;;;9.40;90.10;;;;;;5131789;28;20530;-39
2021/12/29 14:08:24;;;;;;;17.95;8.52;;;9.50;89.80;;;;;;5132838;28;20019;-38
2021/12/29 14:10:50;;;;;;;18.77;9.32;;;9.50;89.90;;;;;;5131455;28;20012;-42
2021/12/29 14:13:19;;;;;;;20.27;9.13;;;9.60;90.20;;;;;;5131552;28;20024;-38
2021/12/29 14:15:48;;;;;;;16.10;8.75;;;9.70;89.90;;;;;;5131779;28;20098;-38
2021/12/29 14:18:23;;;;;;;19.60;7.90;;;9.70;89.60;;;;;;5131439;28;20112;-38
2021/12/29 14:20:54;;;;;;;23.27;9.82;;;9.70;89.40;;;;;;5132466;28;20348;-37
2021/12/29 14:23:27;;;;;;;18.85;8.73;;;9.70;89.60;;;;;;5131934;28;20030;-38
2021/12/29 14:25:52;;;;;;;15.02;8.73;;;9.60;89.50;;;;;;5113027;28;20049;-38
2021/12/29 14:28:20;;;;;;;22.85;9.98;;;9.50;89.70;;;;;;5131347;28;20071;-38
2021/12/29 14:30:59;;;;;;;14.30;8.30;;;9.50;90.00;;;;;;5131618;28;20011;-38
2021/12/29 14:33:41;;;;;;;17.85;8.15;;;9.40;90.50;;;;;;5130904;28;20027;-38
2021/12/29 14:36:09;;;;;;;13.85;8.05;;;9.50;90.90;;;;;;5130903;28;20146;-39
2021/12/29 14:38:38;;;;;;;15.75;8.13;;;9.40;90.70;;;;;;5130728;28;20115;-38
2021/12/29 14:41:25;;;;;;;13.70;8.40;;;9.30;91.00;;;;;;5130534;28;20031;-38
2021/12/29 14:43:59;;;;;;;15.70;9.52;;;9.30;91.40;;;;;;5129870;28;20032;-37
2021/12/29 14:46:24;;;;;;;18.00;8.13;;;9.20;91.60;;;;;;5131092;28;20169;-38
2021/12/29 14:48:55;;;;;;;18.98;8.48;;;9.30;91.40;;;;;;5131015;28;20464;-38
2021/12/29 14:51:21;;;;;;;10.68;6.35;;;9.30;91.40;;;;;;5131671;28;20058;-38
2021/12/29 14:53:47;;;;;;;11.55;6.90;;;9.30;91.50;;;;;;5130523;28;20460;-38
2021/12/29 14:56:16;;;;;;;15.00;8.35;;;9.30;91.90;;;;;;5129912;28;20094;-36
2021/12/29 14:58:44;;;;;;;14.63;8.10;;;9.20;91.70;;;;;;5130677;28;20019;-38
2021/12/29 15:01:15;;;;;;;12.38;7.63;;;9.30;91.40;;;;;;5108694;28;20442;-38
2021/12/29 15:03:41;;;;;;;;;;;9.30;91.50;;;;;;5109334;28;20023;-39
2021/12/29 15:06:07;;;;;;;12.07;6.35;;;9.20;91.70;;;;;;5110180;28;19957;-38
2021/12/29 15:08:34;;;;;;;11.40;7.80;;;9.20;92.00;;;;;;5109289;28;20020;-39
2021/12/29 15:11:00;;;;;;;13.80;7.05;;;9.20;92.30;;;;;;5110441;28;20030;-38
2021/12/29 15:13:33;;;;;;;18.88;8.20;;;9.20;91.90;;;;;;5101828;28;20031;-38
2021/12/29 15:16:03;;;;;;;14.10;7.63;;;9.10;92.40;;;;;;5096086;28;20050;-39
2021/12/29 15:18:35;;;;;;;13.67;7.53;;;9.10;92.50;;;;;;5096524;28;20016;-38
2021/12/29 15:21:04;;;;;;;14.82;6.97;;;9.00;92.60;;;;;;5095519;28;20102;-38
2021/12/29 15:23:35;;;;;;;14.45;8.98;;;9.00;92.60;;;;;;5096396;28;20458;-40
2021/12/29 15:26:02;;;;;;;19.45;7.28;;;8.90;92.90;;;;;;5095150;28;20023;-40
2021/12/29 15:28:58;;;;;;;14.60;8.10;;;8.90;93.00;;;;;;5095563;28;20024;-39
2021/12/29 15:31:20;;;;;;;11.80;7.55;;;8.80;93.30;;;;;;5096004;28;20373;-39
2021/12/29 15:33:51;;;;;;;12.43;8.38;;;8.80;93.60;;;;;;5094776;28;20114;-41
2021/12/29 15:36:17;;;;;;;10.35;6.97;;;8.80;93.70;;;;;;5096190;28;20044;-39
2021/12/29 15:38:43;;;;;;;12.70;7.22;;;8.80;93.90;;;;;;5098606;28;20028;-38
2021/12/29 15:41:09;;;;;;;12.75;6.93;;;8.70;94.00;;;;;;5096253;28;20399;-38
2021/12/29 15:43:38;;;;;;;14.82;6.55;;;8.80;94.30;;;;;;5097700;28;20112;-38
2021/12/29 15:46:04;;;;;;;16.52;7.50;;;8.80;94.30;;;;;;5097619;28;20096;-38
2021/12/29 15:48:30;;;;;;;15.05;7.63;;;8.80;94.40;;;;;;5096031;28;20058;-47
2021/12/29 15:50:58;;;;;;;12.63;7.40;;;8.80;94.50;;;;;;5095540;28;20039;-39
2021/12/29 15:53:24;;;;;;;18.15;10.00;;;8.70;94.60;;;;;;5095267;28;20103;-39
2021/12/29 15:55:50;;;;;;;11.43;7.93;;;8.80;94.60;;;;;;5095594;28;20047;-40
2021/12/29 15:58:17;;;;;;;15.77;8.25;;;8.60;94.60;;;;;;5095470;28;20062;-38
2021/12/29 16:00:47;;;;;;;16.95;8.02;;;8.70;94.70;;;;;;5097493;28;20080;-41
2021/12/29 16:03:13;;;;;;;14.40;6.85;;;8.80;94.90;;;;;;5098327;28;20056;-39
2021/12/29 16:05:40;;;;;;;17.25;8.63;;;8.60;94.70;;;;;;5116744;28;20020;-38
2021/12/29 16:08:06;;;;;;;16.15;7.28;;;8.80;94.80;;;;;;5115591;28;20475;-39
2021/12/29 16:10:34;;;;;;;15.80;7.55;;;8.80;94.70;;;;;;5097995;28;20084;-38
2021/12/29 16:13:03;;;;;;;11.52;7.30;;;8.80;94.80;;;;;;5116637;28;20031;-39
2021/12/29 16:15:28;;;;;;;14.00;6.53;;;8.80;94.60;;;;;;5116301;28;20421;-39
2021/12/29 16:17:55;;;;;;;8.80;6.60;;;8.80;94.50;;;;;;5097503;28;20019;-39
2021/12/29 16:20:21;;;;;;;11.20;6.60;;;8.70;94.60;;;;;;5098546;28;20031;-38
2021/12/29 16:22:47;;;;;;;10.68;6.30;;;8.70;94.90;;;;;;5116293;28;20054;-39
2021/12/29 16:25:15;;;;;;;11.38;6.07;;;8.80;94.80;;;;;;5097130;28;20049;-37
2021/12/29 16:27:41;;;;;;;10.32;6.07;;;8.80;94.90;;;;;;5116117;28;20019;-38
2021/12/29 16:30:11;;;;;;;12.52;6.97;;;8.70;95.00;;;;;;5097740;28;20028;-39
2021/12/29 16:32:36;;;;;;;18.33;5.93;;;8.70;95.10;;;;;;5117070;28;20351;-39
2021/12/29 16:35:03;;;;;;;9.25;6.00;;;8.80;95.20;;;;;;5115371;28;20015;-40
2021/12/29 16:37:29;;;;;;;13.07;7.07;;;8.70;95.20;;;;;;5115762;28;20034;-38
2021/12/29 16:39:55;;;;;;;8.40;5.90;;;8.70;95.30;;;;;;5116195;28;20032;-38
2021/12/29 16:42:22;;;;;;;10.52;6.78;;;8.80;95.40;;;;;;5116115;28;20068;-38
2021/12/29 16:44:49;;;;;;;12.23;6.60;;;8.80;95.50;;;;;;5115275;28;20023;-40
2021/12/29 16:47:15;;;;;;;10.63;5.32;;;8.80;95.50;;;;;;5115758;28;20060;-39
2021/12/29 16:49:41;;;;;;;16.48;8.63;;;8.80;95.60;;;;;;5116271;28;20031;-39
2021/12/29 16:52:08;;;;;;;11.20;5.85;;;8.80;95.70;;;;;;5097629;28;20035;-38
2021/12/29 16:54:34;;;;;;;11.05;5.97;;;8.80;95.80;;;;;;5116934;28;20121;-39
2021/12/29 16:57:03;;;;;;;14.85;5.90;;;8.80;95.90;;;;;;5096804;28;20430;-39
2021/12/29 16:59:29;;;;;;;11.05;5.43;;;8.90;95.90;;;;;;5115156;28;20030;-39
2021/12/29 17:01:55;;;;;;;11.57;5.97;;;8.90;95.80;;;;;;5096547;28;20048;-39
2021/12/29 17:04:22;;;;;;;15.13;6.22;;;8.80;95.80;;;;;;5115225;28;20024;-39
2021/12/29 17:06:48;;;;;;;7.40;5.65;;;8.90;95.80;;;;;;5114638;28;20076;-39
2021/12/29 17:09:13;;;;;;;10.75;7.13;;;8.90;95.90;;;;;;5115545;28;20032;-39
2021/12/29 17:11:39;;;;;;;10.85;5.70;;;8.90;96.00;;;;;;5115516;28;20023;-39
2021/12/29 17:14:10;;;;;;;6.32;4.97;;;8.90;96.00;;;;;;5115370;28;20023;-39
2021/12/29 17:16:38;;;;;;;9.35;6.15;;;8.90;95.90;;;;;;5114402;28;20106;-38
2021/12/29 17:19:04;;;;;;;13.55;6.20;;;8.90;96.00;;;;;;5114644;28;20047;-38
2021/12/29 17:21:30;;;;;;;10.55;6.50;;;9.00;96.20;;;;;;5096048;28;20501;-39
2021/12/29 17:23:55;;;;;;;8.57;5.28;;;8.90;96.20;;;;;;5115151;28;20016;-40
2021/12/29 17:26:21;;;;;;;7.90;5.32;;;9.00;96.30;;;;;;5114681;28;20471;-40
2021/12/29 17:28:47;;;;;;;8.23;4.60;;;9.10;96.30;;;;;;5115123;28;20031;-38
2021/12/29 17:31:13;;;;;;;9.48;5.80;;;9.10;96.30;;;;;;5096983;28;20383;-39
2021/12/29 17:33:38;;;;;;;5.80;4.70;;;9.10;96.30;;;;;;5114368;28;20043;-49
2021/12/29 17:36:04;;;;;;;11.95;6.78;;;9.10;96.40;;;;;;5115130;28;20039;-51
2021/12/29 17:38:30;;;;;;;7.65;4.55;;;9.10;96.40;;;;;;5114785;28;20031;-48
2021/12/29 17:40:56;;;;;;;5.25;3.70;;;9.20;96.40;;;;;;5097244;28;20487;-49
2021/12/29 17:43:21;;;;;;;4.43;3.72;;;9.30;96.40;;;;;;5114281;28;20046;-51
2021/12/29 17:45:47;;;;;;;6.82;4.22;;;9.30;96.50;;;;;;5115307;28;20356;-47
2021/12/29 17:48:15;;;;;;;5.03;3.60;;;9.30;96.50;;;;;;5114417;28;20381;-51
2021/12/29 17:50:42;;;;;;;5.40;4.20;;;9.30;96.50;;;;;;5114198;28;20028;-49
2021/12/29 17:53:08;;;;;;;9.60;4.03;;;9.40;96.50;;;;;;5114926;28;20016;-49
2021/12/29 17:55:37;;;;;;;5.15;3.53;;;9.40;96.60;;;;;;5115290;28;20367;-49
2021/12/29 17:58:07;;;;;;;5.28;3.53;;;9.50;96.70;;;;;;5114758;28;20023;-49
2021/12/29 18:00:34;;;;;;;6.65;3.97;;;9.50;96.70;;;;;;5114536;28;20024;-49
2021/12/29 18:03:00;;;;;;;3.65;2.55;;;9.60;96.80;;;;;;5114642;28;20096;-47
2021/12/29 18:05:26;;;;;;;10.57;4.22;;;9.70;96.90;;;;;;5114759;28;20019;-49
2021/12/29 18:07:52;;;;;;;6.00;3.85;;;9.70;96.90;;;;;;5114295;28;20028;-47
2021/12/29 18:10:21;;;;;;;4.22;3.42;;;9.70;96.90;;;;;;5114540;28;20076;-50
2021/12/29 18:12:48;;;;;;;6.13;3.55;;;9.80;97.00;;;;;;5114304;28;20043;-49
2021/12/29 18:15:15;;;;;;;4.13;3.08;;;9.80;97.10;;;;;;5115222;28;20074;-47
2021/12/29 18:17:42;;;;;;;6.60;3.97;;;9.80;97.10;;;;;;5113944;28;20036;-47
2021/12/29 18:20:13;;;;;;;7.03;4.07;;;9.80;97.10;;;;;;5114587;28;20027;-49
2021/12/29 18:22:40;;;;;;;7.10;5.03;;;9.90;97.10;;;;;;5079708;28;20482;-52
2021/12/29 18:25:07;;;;;;;6.70;4.00;;;9.90;97.20;;;;;;5113350;28;20020;-48
2021/12/29 18:27:33;;;;;;;5.70;4.82;;;9.90;97.10;;;;;;5113747;28;20031;-50
2021/12/29 18:30:00;;;;;;;4.55;3.83;;;9.90;97.20;;;;;;5115117;28;20038;-50
2021/12/29 18:32:26;;;;;;;6.68;4.80;;;9.90;97.20;;;;;;5115168;28;20035;-48
2021/12/29 18:34:53;;;;;;;7.45;5.10;;;9.90;97.20;;;;;;5097409;28;20019;-48
2021/12/29 18:37:23;;;;;;;7.50;5.30;;;9.90;97.20;;;;;;5113894;28;20030;-48
2021/12/29 18:39:49;;;;;;;7.80;5.70;;;9.90;97.20;;;;;;5113868;28;20038;-50
2021/12/29 18:42:15;;;;;;;8.38;5.32;;;9.90;97.30;;;;;;5114181;28;20613;-49
2021/12/29 18:44:40;;;;;;;7.80;6.05;;;9.90;97.30;;;;;;5113880;28;20031;-47
2021/12/29 18:47:06;;;;;;;8.45;4.97;;;10.00;97.30;;;;;;5114604;28;20063;-38
2021/12/29 18:49:32;;;;;;;8.63;6.80;;;9.90;97.30;;;;;;5117794;28;20094;-39
2021/12/29 18:51:58;;;;;;;10.50;6.82;;;10.00;97.30;;;;;;5118234;28;20352;-38
2021/12/29 18:54:23;;;;;;;10.57;8.05;;;10.00;97.30;;;;;;5117834;28;20026;-38
2021/12/29 18:56:50;;;;;;;9.10;7.13;;;10.00;97.30;;;;;;5117572;28;20035;-38
2021/12/29 18:59:15;;;;;;;11.63;7.03;;;10.10;97.40;;;;;;5117661;28;20032;-38
2021/12/29 19:01:41;;;;;;;13.55;9.27;;;10.10;97.40;;;;;;5117756;28;20141;-38
2021/12/29 19:04:07;;;;;;;12.07;8.18;;;10.10;97.40;;;;;;5118780;28;20439;-38
2021/12/29 19:06:36;;;;;;;12.73;10.02;;;10.20;97.40;;;;;;5103348;28;20049;-41
2021/12/29 19:09:04;;;;;;;14.90;10.32;;;10.20;97.40;;;;;;5109682;28;20042;-51
2021/12/29 19:11:30;;;;;;;14.90;9.60;;;10.20;97.40;;;;;;5117126;28;20030;-49
2021/12/29 19:13:56;;;;;;;13.90;8.88;;;10.30;97.40;;;;;;5117318;28;20032;-49
2021/12/29 19:16:22;;;;;;;18.17;11.40;;;10.30;97.30;;;;;;5098584;28;20115;-48
2021/12/29 19:18:49;;;;;;;18.50;11.88;;;10.40;97.40;;;;;;5117197;28;20035;-49
2021/12/29 19:21:16;;;;;;;18.75;13.00;;;10.40;97.40;;;;;;5118493;28;20383;-50
2021/12/29 19:23:41;;;;;;;16.98;13.50;;;10.50;97.40;;;;;;5117241;28;20459;-50
2021/12/29 19:26:08;;;;;;;19.13;12.77;;;10.50;97.40;;;;;;5117030;28;20016;-39
2021/12/29 19:28:42;;;;;;;25.77;16.00;;;10.50;97.40;;;;;;5118032;28;20051;-39
2021/12/29 19:31:08;;;;;;;22.50;15.00;;;10.60;97.40;;;;;;5098726;28;20028;-49
2021/12/29 19:33:34;;;;;;;23.48;15.55;;;10.50;97.40;;;;;;5116749;28;20022;-51
2021/12/29 19:36:00;;;;;;;26.95;17.77;;;10.60;97.50;;;;;;5118113;28;20031;-49
2021/12/29 19:38:26;;;;;;;24.25;15.07;;;10.70;97.50;;;;;;5117275;28;20028;-48
2021/12/29 19:40:54;;;;;;;26.70;18.13;;;10.70;97.50;;;;;;5116720;28;20106;-51
2021/12/29 19:43:21;;;;;;;30.92;21.83;;;10.70;97.50;;;;;;5115981;28;20019;-51
2021/12/29 19:45:47;;;;;;;26.77;18.20;;;10.80;97.60;;;;;;5116319;28;20053;-48
2021/12/29 19:48:13;;;;;;;29.65;19.65;;;10.80;97.50;;;;;;5117603;28;20030;-51
2021/12/29 19:50:42;;;;;;;27.45;19.50;;;10.80;97.50;;;;;;5117703;28;20027;-48
2021/12/29 19:53:10;;;;;;;31.27;22.17;;;10.80;97.50;;;;;;5115954;28;20067;-52
2021/12/29 19:55:38;;;;;;;35.78;23.98;;;10.90;97.60;;;;;;5097662;28;20019;-50
2021/12/29 19:58:05;;;;;;;37.42;24.48;;;10.90;97.50;;;;;;5117091;28;20016;-53
2021/12/29 20:00:32;;;;;;;36.85;24.25;;;11.00;97.60;;;;;;5117549;28;20038;-49
2021/12/29 20:02:58;;;;;;;40.08;25.65;;;11.00;97.60;;;;;;5116906;28;20050;-48
2021/12/29 20:05:24;;;;;;;37.42;23.75;;;11.10;97.60;;;;;;5116330;28;20024;-51
2021/12/29 20:07:55;;;;;;;40.15;22.52;;;11.10;97.60;;;;;;5098837;28;20031;-51
2021/12/29 20:10:20;;;;;;;;;;;11.10;97.60;;;;;;5117745;28;20427;-50
2021/12/29 20:12:46;;;;;;;51.75;28.33;;;11.20;97.60;;;;;;5117008;28;19914;-48
2021/12/29 20:15:16;;;;;;;45.08;26.70;;;11.30;97.70;;;;;;5117001;28;20024;-50
2021/12/29 20:17:42;;;;;;;51.28;31.02;;;11.30;97.60;;;;;;5117014;28;20065;-50
2021/12/29 20:20:11;;;;;;;52.47;31.00;;;11.40;97.60;;;;;;5098668;28;20033;-52
2021/12/29 20:22:38;;;;;;;51.40;30.63;;;11.50;97.50;;;;;;5117589;28;20053;-51
2021/12/29 20:25:08;;;;;;;55.80;30.75;;;11.60;97.40;;;;;;5115941;28;20016;-53
2021/12/29 20:27:35;;;;;;;52.85;30.25;;;11.70;97.30;;;;;;5116229;28;20016;-49
2021/12/29 20:30:09;;;;;;;45.30;29.05;;;11.70;97.20;;;;;;5116269;28;20035;-49
2021/12/29 20:32:35;;;;;;;42.45;25.55;;;11.90;97.00;;;;;;5116119;28;20059;-50
2021/12/29 20:35:03;;;;;;;29.85;19.63;;;12.00;96.80;;;;;;5097232;28;20480;-48
2021/12/29 20:37:28;;;;;;;32.38;21.13;;;11.90;96.50;;;;;;5098306;28;20026;-51
2021/12/29 20:39:54;;;;;;;34.08;22.30;;;12.10;96.50;;;;;;5116152;28;20102;-49
2021/12/29 20:42:20;;;;;;;37.85;21.27;;;12.20;96.20;;;;;;5098309;28;20028;-52
2021/12/29 20:44:46;;;;;;;35.58;22.10;;;12.20;96.00;;;;;;5116402;28;20459;-50
2021/12/29 20:47:12;;;;;;;31.02;22.08;;;12.20;96.00;;;;;;5116190;28;20031;-51
2021/12/29 20:49:38;;;;;;;28.00;18.75;;;12.30;95.90;;;;;;5115268;28;20431;-49
2021/12/29 20:52:05;;;;;;;39.53;20.42;;;12.30;95.80;;;;;;5096637;28;20063;-50
2021/12/29 20:54:31;;;;;;;32.95;19.77;;;12.20;95.90;;;;;;5116657;28;20400;-48
2021/12/29 20:56:57;;;;;;;33.17;20.05;;;12.30;95.80;;;;;;5115890;28;20024;-49
2021/12/29 20:59:24;;;;;;;35.15;20.48;;;12.30;95.80;;;;;;5115649;28;20525;-51
2021/12/29 21:01:50;;;;;;;26.95;18.17;;;12.30;95.70;;;;;;5114948;28;20040;-51
2021/12/29 21:04:17;;;;;;;30.75;15.80;;;12.30;95.60;;;;;;5115715;28;20046;-53
2021/12/29 21:06:43;;;;;;;34.72;19.40;;;12.30;95.60;;;;;;5115205;28;20031;-48
2021/12/29 21:09:09;;;;;;;35.15;18.63;;;12.30;95.60;;;;;;5096993;28;20016;-50
2021/12/29 21:11:35;;;;;;;33.20;18.42;;;12.30;95.40;;;;;;5114678;28;20111;-52
2021/12/29 21:14:01;;;;;;;27.98;16.65;;;12.30;95.40;;;;;;5114912;28;20031;-49
2021/12/29 21:16:26;;;;;;;30.40;17.08;;;12.40;95.40;;;;;;5115765;28;20036;-50
2021/12/29 21:18:52;;;;;;;29.77;18.83;;;12.40;95.30;;;;;;5096518;28;20034;-50
2021/12/29 21:21:18;;;;;;;38.10;20.08;;;12.40;95.20;;;;;;5114465;28;20031;-50
2021/12/29 21:23:46;;;;;;;29.55;17.98;;;12.40;95.00;;;;;;5114719;28;20023;-52
2021/12/29 21:26:13;;;;;;;26.88;17.40;;;12.50;95.00;;;;;;5114556;28;20039;-52
2021/12/29 21:28:39;;;;;;;31.02;17.73;;;12.50;95.00;;;;;;5114201;28;20016;-48
2021/12/29 21:31:06;;;;;;;35.42;17.80;;;12.50;94.90;;;;;;5114619;28;20023;-48
2021/12/29 21:33:32;;;;;;;29.48;17.27;;;12.60;94.50;;;;;;5115084;28;20472;-49
2021/12/29 21:36:00;;;;;;;33.15;18.25;;;12.50;94.60;;;;;;5095787;28;20023;-48
2021/12/29 21:38:28;;;;;;;28.50;16.73;;;12.60;94.50;;;;;;5097077;28;20023;-48
2021/12/29 21:40:54;;;;;;;25.90;15.93;;;12.60;94.20;;;;;;5115072;28;20471;-51
2021/12/29 21:43:21;;;;;;;28.00;16.80;;;12.60;94.30;;;;;;5115171;28;20039;-48
2021/12/29 21:45:47;;;;;;;28.13;15.60;;;12.60;94.20;;;;;;5114728;28;20067;-49
2021/12/29 21:48:13;;;;;;;32.10;14.32;;;12.60;94.10;;;;;;5095895;28;20020;-49
2021/12/29 21:50:40;;;;;;;24.73;13.80;;;12.60;94.20;;;;;;5114183;28;20076;-53
2021/12/29 21:53:08;;;;;;;26.23;14.70;;;12.60;94.20;;;;;;5114352;28;20098;-50
2021/12/29 21:55:34;;;;;;;25.35;13.55;;;12.70;93.90;;;;;;5114880;28;20024;-49
2021/12/29 21:58:01;;;;;;;28.15;13.93;;;12.70;93.60;;;;;;5096101;28;20072;-51
2021/12/29 22:00:27;;;;;;;29.52;11.65;;;12.70;93.40;;;;;;5113727;28;20062;-52
2021/12/29 22:02:53;;;;;;;36.38;12.68;;;12.70;93.10;;;;;;5114088;28;20051;-52
2021/12/29 22:05:22;;;;;;;24.55;11.00;;;12.80;93.20;;;;;;5114551;28;20064;-50
2021/12/29 22:07:51;;;;;;;23.30;11.70;;;12.70;92.90;;;;;;5114869;28;20016;-50
2021/12/29 22:10:22;;;;;;;26.25;11.90;;;12.70;93.10;;;;;;5113800;28;20475;-50
2021/12/29 22:12:48;;;;;;;23.67;10.20;;;12.60;93.00;;;;;;5115097;28;20020;-49
2021/12/29 22:15:14;;;;;;;31.08;10.63;;;12.70;92.60;;;;;;5096379;28;20024;-50
2021/12/29 22:17:39;;;;;;;31.15;10.23;;;12.70;92.60;;;;;;5114742;28;20027;-49
2021/12/29 22:20:06;;;;;;;30.38;10.55;;;12.60;92.60;;;;;;5095543;28;20032;-50
2021/12/29 22:22:32;;;;;;;30.17;11.35;;;12.60;92.60;;;;;;5114428;28;20038;-50
2021/12/29 22:24:58;;;;;;;31.30;11.05;;;12.60;92.50;;;;;;5119614;28;20132;-49
2021/12/29 22:27:25;;;;;;;28.73;9.25;;;12.60;92.50;;;;;;5119396;28;20027;-50
2021/12/29 22:29:52;;;;;;;34.85;9.85;;;12.70;91.90;;;;;;5100096;28;20024;-52
2021/12/29 22:32:18;;;;;;;34.22;10.25;;;12.50;92.10;;;;;;5119333;28;20051;-52
2021/12/29 22:34:44;;;;;;;25.63;8.13;;;12.60;91.70;;;;;;5119102;28;20572;-52
2021/12/29 22:37:13;;;;;;;27.17;7.80;;;12.60;91.70;;;;;;5119166;28;20027;-49
2021/12/29 22:39:43;;;;;;;27.77;8.07;;;12.60;91.10;;;;;;5118552;28;20072;-48
2021/12/29 22:42:09;;;;;;;24.92;8.45;;;12.60;91.00;;;;;;5118454;28;20023;-54
2021/12/29 22:44:35;;;;;;;14.00;6.55;;;12.50;91.10;;;;;;5118369;28;20030;-52
2021/12/29 22:47:01;;;;;;;28.17;8.50;;;12.50;91.20;;;;;;5118138;28;20103;-50
2021/12/29 22:49:27;;;;;;;27.02;9.88;;;12.50;91.20;;;;;;5099462;28;20382;-49
2021/12/29 22:51:53;;;;;;;28.25;9.65;;;12.50;91.20;;;;;;5117845;28;20114;-48